Nearby METAR (Airport) Reports

 

KPRN - Greenville, Alabama, USA
Distance from station: WNW 17mi, 28km
Updated: Mon, 05-Jun-2023 11:45am CDT
Mostly cloudy
Mostly cloudy
 Wind from calm
Wind: Calm
Temperature: 81°F , 27°C
Heat Index: 83°F , 28°C
Dew Point: 64°F , 18°C
Humidity: 58%
Barometer: 29.96 inHg , 1014.6 hPa
Clouds: Mostly cloudy
Visibility: 10 miles , 16 km
Cloud details: Partly cloudy 2500 ft
Mostly cloudy 3300 ft
Mostly cloudy 4300 ft
2023/06/05 16:45 KPRN 051645Z AUTO 00000KT 10SM SCT025 BKN033 BKN043 27/18 A2996 RMK AO2 T02670183
KTOI - Troy, Alabama, USA
Distance from station: ENE 21mi, 34km
Updated: Mon, 05-Jun-2023 11:53am CDT
Mostly cloudy
Mostly cloudy
 Wind from ESE
Wind: ESE 6 mph , 9 km/h
Temperature: 84°F , 29°C
Heat Index: 86°F , 30°C
Dew Point: 66°F , 19°C
Humidity: 55%
Barometer: 29.98 inHg , 1015.2 hPa
Clouds: Mostly cloudy
Visibility: 10 miles , 16 km
Cloud details: Mostly cloudy 3400 ft
2023/06/05 16:53 KTOI 051653Z AUTO 12005KT 10SM BKN034 29/19 A2998 RMK AO2 SLP145 T02890189
K79J - Andalusia/Opp Ar, Alabama, USA
Distance from station: S 29mi, 47km
Updated: Mon, 05-Jun-2023 11:56am CDT

 Wind from calm
Wind: Calm
Temperature: 84°F , 29°C
Heat Index: 85°F , 29°C
Dew Point: 64°F , 18°C
Humidity: 51%
Barometer: 29.96 inHg , 1014.6 hPa
Visibility: 10 miles , 16 km
2023/06/05 16:56 K79J 051656Z AUTO 00000KT 10SM 29/18 A2996 RMK AO2 SLPNO T02940183
 
KMGM - Montgomery, Alabama, USA
Distance from station: N 39mi, 63km
Updated: Mon, 05-Jun-2023 11:53am CDT
Few Clouds
Few Clouds
 Wind from SSE
Wind: SSE 3 mph , 6 km/h
Temperature: 82°F , 28°C
Heat Index: 84°F , 29°C
Dew Point: 66°F , 19°C
Humidity: 58%
Barometer: 29.97 inHg , 1014.9 hPa
Clouds: Few Clouds
Visibility: 10 miles , 16 km
Cloud details: Few Clouds 3800 ft
2023/06/05 16:53 KMGM 051653Z 16003KT 10SM FEW038 28/19 A2997 RMK AO2 SLP144 T02830189
KMXF - Maxwell Afb/Mgm, Alabama, USA
Distance from station: N 44mi, 70km
Updated: Mon, 05-Jun-2023 11:55am CDT
Partly cloudy
Partly cloudy
 Wind from SSW
Wind: SSW 3 mph , 6 km/h
Temperature: 84°F , 29°C
Heat Index: 85°F , 29°C
Dew Point: 63°F , 17°C
Humidity: 48%
Barometer: 29.94 inHg , 1013.9 hPa
Clouds: Partly cloudy
Visibility: 10 miles , 16 km
Cloud details: Partly cloudy 3300 ft
2023/06/05 16:55 KMXF 051655Z AUTO 21003KT 10SM SCT033 29/17 A2994 RMK AO2 SLP140 T02860165
KLOR - Lowe Ahp/Ft. Ruc, Alabama, USA
Distance from station: SE 44mi, 71km
Updated: Mon, 05-Jun-2023 11:55am CDT
Few Clouds
Few Clouds
 Wind from calm
Wind: Calm
Temperature: 81°F , 27°C
Heat Index: 83°F , 28°C
Dew Point: 64°F , 18°C
Humidity: 58%
Barometer: 29.96 inHg , 1014.6 hPa
Clouds: Few Clouds
Visibility: 10 miles , 16 km
Cloud details: Few Clouds 35000 ft
2023/06/05 16:55 KLOR 051655Z AUTO 00000KT 10SM FEW350 27/18 A2996 RMK AO2 SLP127 T02680175
 
KGZH - Evergreen, Alabama, USA
Distance from station: WSW 46mi, 75km
Updated: Mon, 05-Jun-2023 11:53am CDT
Partly cloudy
Partly cloudy
 Wind from ESE
Wind: ESE 6 mph , 9 km/h
Temperature: 82°F , 28°C
Heat Index: 84°F , 29°C
Dew Point: 66°F , 19°C
Humidity: 58%
Barometer: 29.96 inHg , 1014.6 hPa
Clouds: Partly cloudy
Visibility: 10 miles , 16 km
Cloud details: Few Clouds 3400 ft
Partly cloudy 4500 ft
2023/06/05 16:53 KGZH 051653Z AUTO 11005KT 10SM FEW034 SCT045 28/19 A2996 RMK AO2 SLP141 T02780194
K0J4 - Florala Muni, Alabama, USA
Distance from station: S 47mi, 76km
Updated: Mon, 05-Jun-2023 11:58am CDT
Clear
Clear
 Wind from ESE
Wind: ESE 7 mph , 11 km/h
Temperature: 82°F , 28°C
Heat Index: 83°F , 28°C
Dew Point: 63°F , 17°C
Humidity: 51%
Barometer: 29.98 inHg , 1015.2 hPa
Clouds: Clear
Visibility: 10 miles , 16 km
2023/06/05 16:58 K0J4 051658Z AUTO 12006KT 10SM CLR 28/17 A2998 RMK AO2 SLP146 T02830172
KOZR - Ozark/Cairns Aaf, Alabama, USA
Distance from station: SE 49mi, 78km
Updated: Mon, 05-Jun-2023 11:55am CDT
Clear
Clear
 Wind from ESE
Wind: ESE 3 mph , 6 km/h
Temperature: 81°F , 27°C
Heat Index: 82°F , 28°C
Dew Point: 63°F , 17°C
Humidity: 54%
Barometer: 29.95 inHg , 1014.2 hPa
Clouds: Clear
Visibility: 10 miles , 16 km
2023/06/05 16:55 KOZR 051655Z AUTO 12003KT 10SM CLR 27/17 A2995 RMK AO2 SLP142 T02670172 $
 
KHEY - Ft Rucker/Hanche, Alabama, USA
Distance from station: ESE 49mi, 79km
Updated: Mon, 05-Jun-2023 11:55am CDT
Few Clouds
Few Clouds
 Wind from E
Wind: E 6 mph , 9 km/h
Temperature: 81°F , 27°C
Heat Index: 83°F , 28°C
Dew Point: 64°F , 18°C
Humidity: 58%
Barometer: 29.94 inHg , 1013.9 hPa
Clouds: Few Clouds
Visibility: 10 miles , 16 km
Cloud details: Few Clouds 29000 ft
2023/06/05 16:55 KHEY 051655Z AUTO 10005KT 10SM FEW290 27/18 A2994 RMK AO2 SLP138 T02670177
KDHN - Dothan, Alabama, USA
Distance from station: ESE 61mi, 97km
Updated: Mon, 05-Jun-2023 11:53am CDT
Clear
Clear
 Wind from NNE
Wind: NNE 8 mph , 13 km/h
Temperature: 82°F , 28°C
Heat Index: 83°F , 28°C
Dew Point: 63°F , 17°C
Humidity: 51%
Barometer: 30.00 inHg , 1015.9 hPa
Clouds: Clear
Visibility: 10 miles , 16 km
2023/06/05 16:53 KDHN 051653Z 02007KT 10SM CLR 28/17 A3000 RMK AO2 SLP154 T02780172
KCEW - Crestview, Florida, USA
Distance from station: S 66mi, 107km
Updated: Mon, 05-Jun-2023 11:53am CDT
Clear
Clear
 Wind from varies
Wind: varies 5 mph , 7 km/h
Temperature: 82°F , 28°C
Heat Index: 84°F , 29°C
Dew Point: 66°F , 19°C
Humidity: 58%
Barometer: 29.97 inHg , 1014.9 hPa
Clouds: Clear
Visibility: 10 miles , 16 km
2023/06/05 16:53 KCEW 051653Z AUTO VRB04KT 10SM CLR 28/19 A2997 RMK AO2 SLP145 T02830189
 
KEUF - Eufaula, Alabama, USA
Distance from station: ENE 73mi, 118km
Updated: Mon, 05-Jun-2023 11:58am CDT
Partly cloudy
Partly cloudy
 Wind from calm
Wind: Calm
Temperature: 79°F , 26°C
Dew Point: 66°F , 19°C
Humidity: 65%
Barometer: 29.99 inHg , 1015.6 hPa
Clouds: Partly cloudy
Visibility: 10 miles , 16 km
Cloud details: Partly cloudy 2800 ft
2023/06/05 16:58 KEUF 051658Z AUTO 00000KT 10SM SCT028 26/19 A2999 RMK AO2 SLP151 T02560189
KJKA - Gulf Shores, Alabama, USA
Distance from station: SSW 132mi, 212km
Updated: Mon, 05-Jun-2023 11:55am CDT
Partly cloudy
Partly cloudy
 Wind from E
Wind: E 10 mph , 17 km/h, Gust: 17 mph , 28 km/h
Temperature: 81°F , 27°C
Heat Index: 85°F , 29°C
Dew Point: 70°F , 21°C
Humidity: 70%
Barometer: 29.95 inHg , 1014.2 hPa
Clouds: Partly cloudy
Visibility: 10 miles , 16 km
Cloud details: Few Clouds 2200 ft
Partly cloudy 2600 ft
2023/06/05 16:55 KJKA 051655Z 09009G15KT 10SM FEW022 SCT026 27/21 A2995
KLSF - Ft Benning/Colum, Georgia, USA
Distance from station: SNE 89mi, 143km
Updated: Mon, 05-Jun-2023 11:55am CDT
Partly cloudy
Partly cloudy
 Wind from E
Wind: E 5 mph , 7 km/h
Temperature: 79°F , 26°C
Dew Point: 64°F , 18°C
Humidity: 61%
Barometer: 29.96 inHg , 1014.6 hPa
Clouds: Partly cloudy
Visibility: 10 miles , 16 km
Cloud details: Few Clouds 12000 ft
Few Clouds 14000 ft
Partly cloudy 16000 ft
Partly cloudy 19000 ft
Partly cloudy 21000 ft
2023/06/05 16:55 KLSF 051655Z AUTO 10004KT 10SM FEW120 FEW140 SCT160 SCT190 SCT210 26/18 A2996 RMK AO2 SLP149 T02630184 $
 
KMOB - Mobile/Bates, Alabama, USA
Distance from station: SW 125mi, 202km
Updated: Mon, 05-Jun-2023 11:56am CDT
Mostly cloudy
Mostly cloudy
 Wind from S
Wind: S 8 mph , 13 km/h
Temperature: 84°F , 29°C
Heat Index: 86°F , 30°C
Dew Point: 66°F , 19°C
Humidity: 55%
Barometer: 29.95 inHg , 1014.2 hPa
Clouds: Mostly cloudy
Visibility: 10 miles , 16 km
Cloud details: Mostly cloudy 3000 ft
Mostly cloudy 15000 ft
Mostly cloudy 25000 ft
2023/06/05 16:56 KMOB 051656Z 17007KT 10SM BKN030 BKN150 BKN250 29/19 A2995 RMK AO2 SLP138 T02890194
KNMM - Meridian Nas, Mississippi, USA
Distance from station: WNW 151mi, 243km
Updated: Mon, 05-Jun-2023 11:56am CDT
Partly cloudy
Partly cloudy
 Wind from varies
Wind: varies 5 mph , 7 km/h
Temperature: 82°F , 28°C
Heat Index: 85°F , 29°C
Dew Point: 68°F , 20°C
Humidity: 62%
Barometer: 29.95 inHg , 1014.2 hPa
Clouds: Partly cloudy
Visibility: 10 miles , 16 km
Cloud details: Few Clouds 6000 ft
Partly cloudy 16000 ft
2023/06/05 16:56 KNMM 051656Z VRB04KT 10SM FEW060 SCT160 28/20 A2995 RMK AO2 SLPNO T02830200
KQHY - Hurlbert (Ft Walton Bch), Florida, USA
Distance from station: S 94mi, 151km
Updated: Mon, 05-Jun-2023 11:55am CDT
Clear
Clear
 Wind from SSE
Wind: SSE 5 mph , 7 km/h
Temperature: 79°F , 26°C
Dew Point: 68°F , 20°C
Humidity: 70%
Barometer: 29.96 inHg , 1014.6 hPa
Clouds: Clear
Visibility: 10 miles , 16 km
2023/06/05 16:55 KQHY 051655Z AUTO 15004KT 10SM CLR 26/20 A2996 RMK AO2 SLP152 T02590200
 
KTCL - Tuscaloosa, Alabama, USA
Distance from station: NNW 129mi, 207km
Updated: Mon, 05-Jun-2023 11:53am CDT
Clear
Clear
 Wind from varies
Wind: varies 3 mph , 6 km/h
Temperature: 82°F , 28°C
Heat Index: 84°F , 29°C
Dew Point: 66°F , 19°C
Humidity: 58%
Barometer: 29.95 inHg , 1014.2 hPa
Clouds: Clear
Visibility: 9 miles , 14 km
2023/06/05 16:53 KTCL 051653Z VRB03KT 9SM CLR 28/19 A2995 RMK AO2 SLP140 T02780189
KECP - Panama City, Florida, USA
Distance from station: SSE 122mi, 196km
Updated: Mon, 05-Jun-2023 12:01pm CDT
Partly cloudy
Partly cloudy
 Wind from NNE
Wind: NNE 9 mph , 15 km/h
Temperature: 82°F , 28°C
Heat Index: 84°F , 29°C
Dew Point: 66°F , 19°C
Humidity: 58%
Barometer: 29.94 inHg , 1013.9 hPa
Clouds: Partly cloudy
Visibility: 10 miles , 16 km
Cloud details: Partly cloudy 3100 ft
2023/06/05 17:01 KECP 051701Z 02008KT 10SM SCT031 28/19 A2994 RMK AO1 T02780189
KCBM - Columbus Afb, Mississippi, USA
Distance from station: NW 175mi, 282km
Updated: Mon, 05-Jun-2023 11:55am CDT
Mostly cloudy
Mostly cloudy
 Wind from SSW
Wind: SSW 3 mph , 6 km/h
Temperature: 88°F , 31°C
Heat Index: 90°F , 32°C
Dew Point: 64°F , 18°C
Humidity: 46%
Barometer: 29.91 inHg , 1012.9 hPa
Clouds: Mostly cloudy
Visibility: 10 miles , 16 km
Cloud details: Few Clouds 5000 ft
Mostly cloudy 25000 ft
2023/06/05 16:55 KCBM 051655Z 20003KT 10SM FEW050 BKN250 31/18 A2991 RMK AO2A SLP130 ALSTG/SLP ESTMD $
 
KBHM - Birmingham, Alabama, USA
Distance from station: N 132mi, 212km
Updated: Mon, 05-Jun-2023 11:53am CDT
Partly cloudy
Partly cloudy
 Wind from NE
Wind: NE 6 mph , 9 km/h
Temperature: 84°F , 29°C
Heat Index: 85°F , 29°C
Dew Point: 64°F , 18°C
Humidity: 51%
Barometer: 29.98 inHg , 1015.2 hPa
Clouds: Partly cloudy
Visibility: 10 miles , 16 km
Cloud details: Few Clouds 4500 ft
Partly cloudy 25000 ft
2023/06/05 16:53 KBHM 051653Z 04005KT 10SM FEW045 SCT250 29/18 A2998 RMK AO2 SLP144 T02940178
KAAF - Apalachicola, Florida, USA
Distance from station: SSE 156mi, 250km
Updated: Mon, 05-Jun-2023 11:53am CDT
Clear
Clear
 Wind from ESE
Wind: ESE 10 mph , 17 km/h
Temperature: 81°F , 27°C
Heat Index: 85°F , 29°C
Dew Point: 70°F , 21°C
Humidity: 70%
Barometer: 29.95 inHg , 1014.2 hPa
Clouds: Clear
Visibility: 10 miles , 16 km
2023/06/05 16:53 KAAF 051653Z AUTO 11009KT 10SM CLR 27/21 A2995 RMK AO2 SLP141 T02670206 $
KATL - Atlanta, Georgia, USA
Distance from station: NE 177mi, 287km
Updated: Mon, 05-Jun-2023 11:52am CDT
Overcast
Overcast
 Wind from N
Wind: N 3 mph , 6 km/h
Temperature: 73°F , 23°C
Dew Point: 63°F , 17°C
Humidity: 69%
Barometer: 30.01 inHg , 1016.3 hPa
Clouds: Overcast
Visibility: 9 miles , 14 km
Cloud details: Overcast 2200 ft
2023/06/05 16:52 KATL 051652Z 36003KT 9SM OVC022 23/17 A3001 RMK AO2 SLP156 BINOVC T02330172
 
KGPT - Gulfport, Mississippi, USA
Distance from station: SW 192mi, 309km
Updated: Mon, 05-Jun-2023 11:53am CDT
Few Clouds
Few Clouds
 Wind from SE
Wind: SE 15 mph , 24 km/h, Gust: 22 mph , 35 km/h
Temperature: 84°F , 29°C
Heat Index: 89°F , 32°C
Dew Point: 72°F , 22°C
Humidity: 66%
Barometer: 29.93 inHg , 1013.5 hPa
Clouds: Few Clouds
Visibility: 10 miles , 16 km
Cloud details: Few Clouds 2600 ft
2023/06/05 16:53 KGPT 051653Z 13013G19KT 10SM FEW026 29/22 A2993 RMK AO2 SLP134 T02940222
KNEW - New Orleans/Lake, Louisiana, USA
Distance from station: SW 255mi, 410km
Updated: Mon, 05-Jun-2023 11:53am CDT
Few Clouds
Few Clouds
 Wind from ESE
Wind: ESE 10 mph , 17 km/h
Temperature: 84°F , 29°C
Heat Index: 88°F , 31°C
Dew Point: 70°F , 21°C
Humidity: 62%
Barometer: 29.92 inHg , 1013.2 hPa
Clouds: Few Clouds
Visibility: 10 miles , 16 km
Cloud details: Few Clouds 3200 ft
2023/06/05 16:53 KNEW 051653Z 11009KT 10SM FEW032 29/21 A2992 RMK AO2 LTG DSNT W SLP125 T02940211
KP92 - Salt Point, Louisiana, USA
Distance from station: SW 347mi, 559km
Updated: Mon, 05-Jun-2023 11:59am CDT

 Wind from SE
Wind: SE 13 mph , 20 km/h, Gust: 23 mph , 37 km/h
Temperature: 75°F , 24°C
Dew Point: 66°F , 19°C
Humidity: 74%
Barometer: 29.90 inHg , 1012.5 hPa
2023/06/05 16:59 KP92 051659Z AUTO 13011G20KT 24/19 A2990 RMK AO1 SLP123 T02440194